Terminal Aerodrome Forecast
Issued by NWS Blacksburg, VA

Current Version | Previous Version | Graphics & Text | Print | Product List | Glossary On
Versions: 1 2 3 4 5 6 7 8 9 10 11 12 13 14 15 16 17 18 19 20 21 22 23 24 25 26 27 28 29 30 31 32 33 34
000
FTUS41 KRNK 190924 AAB
TAFBLF
TAF AMD
KBLF 190924Z 1909/2006 31008KT P6SM OVC018
      TEMPO 1909/1911 31012G22KT 4SM -SHRA OVC010
     FM191600 30015G25KT P6SM OVC025
     FM192200 30012G21KT P6SM OVC035=

USA.gov is the U.S. government's official web portal to all federal, state and local government web resources and services.